Time;durP1;ratioP1;P1;durP2;ratioP2;P2;SDS_P1;SDS_P2;PMS_P1;PMS_P2;Temp;Humidity;BMP_temperature;BMP_pressure;BME280_temperature;BME280_humidity;BME280_pressure;Samples;Min_cycle;Max_cycle;Signal;HPM_P1;HPM_P2
2024/01/04 00:02:22;;;;;;;834.87;786.47;;;7.90;99.90;;;;;;6009607;23;20438;-90
2024/01/04 00:04:49;;;;;;;838.47;790.77;;;7.90;99.90;;;;;;6008209;23;20422;-89
2024/01/04 00:07:16;;;;;;;840.60;791.10;;;8.00;99.90;;;;;;6009758;23;20414;-89
2024/01/04 00:09:43;;;;;;;831.53;782.00;;;8.00;99.90;;;;;;6009949;23;20425;-89
2024/01/04 00:12:10;;;;;;;849.47;798.07;;;8.00;99.90;;;;;;6009924;23;20461;-88
2024/01/04 00:14:38;;;;;;;849.23;798.07;;;8.10;99.90;;;;;;6009604;23;20436;-89
2024/01/04 00:17:06;;;;;;;842.00;791.30;;;8.10;99.90;;;;;;6009113;23;20446;-88
2024/01/04 00:19:33;;;;;;;846.20;794.30;;;8.10;99.90;;;;;;6009858;23;20425;-89
2024/01/04 00:22:00;;;;;;;838.37;789.10;;;8.10;99.90;;;;;;6009722;23;20434;-88
2024/01/04 00:24:27;;;;;;;859.97;808.43;;;8.20;99.90;;;;;;6009550;23;20422;-90
2024/01/04 00:26:54;;;;;;;842.90;792.07;;;8.10;99.90;;;;;;6009227;23;20418;-89
2024/01/04 00:29:22;;;;;;;867.63;813.07;;;8.20;99.90;;;;;;6009173;23;20425;-89
2024/01/04 00:31:50;;;;;;;895.03;839.50;;;8.20;99.90;;;;;;6009395;23;20497;-88
2024/01/04 00:34:17;;;;;;;890.67;835.30;;;8.10;99.90;;;;;;6007915;23;20426;-89
2024/01/04 00:36:44;;;;;;;880.03;825.43;;;8.20;99.90;;;;;;6009519;23;20420;-89
2024/01/04 00:39:11;;;;;;;881.40;826.20;;;8.20;99.90;;;;;;6009174;23;20416;-88
2024/01/04 00:41:39;;;;;;;876.90;823.93;;;8.20;99.90;;;;;;6009874;23;20414;-89
2024/01/04 00:44:06;;;;;;;871.97;818.67;;;8.20;99.90;;;;;;6009698;23;20871;-89
2024/01/04 00:46:33;;;;;;;873.20;819.70;;;8.20;99.90;;;;;;6009353;23;20462;-89
2024/01/04 00:49:01;;;;;;;878.10;823.57;;;8.20;99.90;;;;;;6009273;23;20410;-89
2024/01/04 00:51:28;;;;;;;878.60;822.87;;;8.20;99.90;;;;;;6009645;23;20410;-89
2024/01/04 00:53:55;;;;;;;884.97;827.90;;;8.20;99.90;;;;;;6009189;23;20434;-89
2024/01/04 00:56:22;;;;;;;885.40;826.80;;;8.20;99.90;;;;;;6009380;23;20902;-89
2024/01/04 00:58:48;;;;;;;885.60;827.30;;;8.20;99.90;;;;;;6009948;23;20453;-89
2024/01/04 01:01:15;;;;;;;879.30;821.80;;;8.30;99.90;;;;;;6011511;23;20414;-89
2024/01/04 01:03:42;;;;;;;872.13;816.47;;;8.20;99.90;;;;;;6011525;23;20441;-89
2024/01/04 01:06:12;;;;;;;871.60;815.00;;;8.20;99.90;;;;;;6011144;23;20420;-89
2024/01/04 01:08:39;;;;;;;870.50;813.90;;;8.30;99.90;;;;;;6011187;23;20497;-88
2024/01/04 01:11:06;;;;;;;880.97;822.90;;;8.20;99.90;;;;;;6011143;23;20414;-88
2024/01/04 01:13:33;;;;;;;879.70;822.83;;;8.20;99.90;;;;;;6011511;23;20444;-90
2024/01/04 01:15:59;;;;;;;879.37;822.40;;;8.20;99.90;;;;;;6010738;23;20428;-89
2024/01/04 01:18:26;;;;;;;869.27;814.60;;;8.20;99.90;;;;;;6010868;23;20509;-89
2024/01/04 01:20:53;;;;;;;872.10;817.10;;;8.20;99.90;;;;;;6011416;23;20444;-89
2024/01/04 01:23:21;;;;;;;867.70;814.80;;;8.20;99.90;;;;;;6011086;23;20434;-89
2024/01/04 01:25:48;;;;;;;865.67;812.37;;;8.30;99.90;;;;;;6009174;23;20433;-88
2024/01/04 01:28:15;;;;;;;867.53;813.33;;;8.30;99.90;;;;;;6011350;23;20414;-89
2024/01/04 01:30:42;;;;;;;885.93;829.47;;;8.30;99.90;;;;;;6011252;23;20414;-89
2024/01/04 01:33:09;;;;;;;896.87;838.17;;;8.30;99.90;;;;;;6011346;23;20767;-89
2024/01/04 01:35:36;;;;;;;895.20;837.03;;;8.30;99.90;;;;;;6011069;23;20421;-88
2024/01/04 01:38:03;;;;;;;884.07;827.47;;;8.30;99.90;;;;;;6010996;23;20448;-88
2024/01/04 01:40:31;;;;;;;871.77;814.90;;;8.30;99.90;;;;;;6010731;23;20424;-89
2024/01/04 01:42:59;;;;;;;857.87;800.40;;;8.30;99.90;;;;;;6011076;23;20438;-88
2024/01/04 01:45:26;;;;;;;868.87;810.00;;;8.30;99.90;;;;;;6010094;23;20725;-89
2024/01/04 01:47:53;;;;;;;861.40;803.10;;;8.20;99.90;;;;;;6011014;23;20414;-90
2024/01/04 01:50:22;;;;;;;857.70;799.43;;;8.20;99.90;;;;;;6010776;23;20425;-90
2024/01/04 01:52:51;;;;;;;856.77;797.83;;;8.20;99.90;;;;;;6009362;23;20469;-90
2024/01/04 01:55:18;;;;;;;854.20;797.00;;;8.20;99.90;;;;;;6010412;23;20421;-90
2024/01/04 01:57:47;;;;;;;890.90;831.03;;;8.20;99.90;;;;;;6010571;23;20442;-90
2024/01/04 02:00:15;;;;;;;894.63;832.23;;;8.20;99.90;;;;;;6010388;23;20424;-90
2024/01/04 02:02:45;;;;;;;901.07;837.97;;;8.10;99.90;;;;;;6011108;23;20456;-91
2024/01/04 02:05:12;;;;;;;888.10;823.80;;;8.10;99.90;;;;;;6010088;23;20414;-90
2024/01/04 02:07:38;;;;;;;867.77;804.10;;;8.10;99.90;;;;;;6011272;23;20503;-91
2024/01/04 02:10:06;;;;;;;888.77;824.97;;;8.10;99.90;;;;;;6009379;23;20777;-91
2024/01/04 02:12:33;;;;;;;878.87;818.00;;;8.10;99.90;;;;;;6010810;23;20435;-91
2024/01/04 02:15:02;;;;;;;902.97;840.23;;;8.00;99.90;;;;;;6010359;23;20517;-91
2024/01/04 02:17:29;;;;;;;867.23;804.63;;;8.10;99.90;;;;;;6011160;23;20422;-91
2024/01/04 02:19:57;;;;;;;848.37;786.77;;;8.00;99.90;;;;;;6010812;23;20418;-89
2024/01/04 02:22:24;;;;;;;820.03;761.10;;;8.00;99.90;;;;;;6009394;23;20444;-90
2024/01/04 02:24:52;;;;;;;821.90;763.07;;;8.00;99.90;;;;;;6011452;23;20414;-90
2024/01/04 02:27:19;;;;;;;803.67;744.00;;;7.90;99.90;;;;;;6010363;23;20422;-89
2024/01/04 02:29:46;;;;;;;809.33;749.67;;;7.90;99.90;;;;;;6009237;23;20417;-90
2024/01/04 02:32:13;;;;;;;821.10;760.13;;;7.90;99.90;;;;;;6010733;23;20442;-90
2024/01/04 02:34:40;;;;;;;822.70;761.53;;;7.90;99.90;;;;;;6010595;23;20930;-90
2024/01/04 02:37:06;;;;;;;826.00;763.83;;;7.90;99.90;;;;;;6010633;23;20420;-90
2024/01/04 02:39:33;;;;;;;824.73;762.27;;;7.90;99.90;;;;;;6008722;23;20826;-90
2024/01/04 02:42:02;;;;;;;830.30;767.37;;;7.90;99.90;;;;;;6010597;23;20434;-90
2024/01/04 02:44:28;;;;;;;830.87;767.47;;;8.00;99.90;;;;;;6010612;23;20425;-91
2024/01/04 02:46:56;;;;;;;828.37;765.57;;;7.90;99.90;;;;;;6010532;23;20418;-91
2024/01/04 02:49:23;;;;;;;822.80;760.50;;;7.90;99.90;;;;;;6010314;23;20425;-90
2024/01/04 02:51:50;;;;;;;833.53;771.73;;;7.90;99.90;;;;;;6010645;23;20422;-90
2024/01/04 02:54:17;;;;;;;829.77;766.83;;;7.90;99.90;;;;;;6010970;23;20422;-90
2024/01/04 02:56:44;;;;;;;810.27;750.87;;;7.90;99.90;;;;;;6010137;23;20423;-90
2024/01/04 02:59:12;;;;;;;808.57;749.67;;;7.90;99.90;;;;;;6010138;23;20438;-90
2024/01/04 03:01:41;;;;;;;803.80;744.43;;;7.90;99.90;;;;;;6010499;23;20424;-90
2024/01/04 03:04:08;;;;;;;809.50;749.20;;;7.90;99.90;;;;;;6010723;23;20740;-89
2024/01/04 03:06:35;;;;;;;814.80;754.90;;;8.00;99.90;;;;;;6010485;23;20446;-90
2024/01/04 03:09:02;;;;;;;817.60;757.30;;;7.90;99.90;;;;;;6010487;23;20414;-89
2024/01/04 03:11:29;;;;;;;830.87;770.47;;;7.90;99.90;;;;;;6019671;23;20422;-90
2024/01/04 03:13:56;;;;;;;844.80;782.20;;;7.90;99.90;;;;;;6010285;23;20521;-89
2024/01/04 03:16:24;;;;;;;840.67;778.50;;;7.80;99.90;;;;;;6010117;23;20880;-90
2024/01/04 03:18:51;;;;;;;842.57;779.37;;;7.80;99.90;;;;;;6010409;23;20452;-90
2024/01/04 03:21:18;;;;;;;838.27;773.57;;;7.80;99.90;;;;;;6008718;23;20422;-89
2024/01/04 03:23:46;;;;;;;851.77;786.73;;;7.70;99.90;;;;;;6010065;23;20442;-90
2024/01/04 03:26:14;;;;;;;839.37;775.07;;;7.70;99.90;;;;;;6009981;23;20418;-89
2024/01/04 03:28:41;;;;;;;838.90;775.20;;;7.70;99.90;;;;;;6010750;23;20474;-89
2024/01/04 03:31:14;;;;;;;842.33;778.73;;;7.70;99.90;;;;;;6010677;23;20414;-90
2024/01/04 17:33:37;;;;;;;322.03;307.20;;;6.60;99.90;;;;;;5927625;22;20538;-86
2024/01/04 17:36:11;;;;;;;301.53;287.67;;;6.60;99.90;;;;;;5012462;22;20489;-89
2024/01/04 17:49:00;;;;;;;299.13;285.77;;;6.80;99.90;;;;;;5538870;22;20482;-78
2024/01/04 17:51:30;;;;;;;285.80;272.97;;;6.80;99.90;;;;;;5161393;22;20486;-78
2024/01/04 17:53:57;;;;;;;287.77;274.90;;;6.80;99.90;;;;;;5008270;28;20492;-78
2024/01/04 17:56:24;;;;;;;284.17;271.57;;;6.90;99.90;;;;;;5008544;28;20822;-78
2024/01/04 17:58:51;;;;;;;278.77;266.60;;;6.90;99.90;;;;;;5008050;28;20460;-78
2024/01/04 18:01:19;;;;;;;259.27;248.20;;;7.00;99.90;;;;;;5008474;28;20457;-78
2024/01/04 18:03:46;;;;;;;245.90;235.47;;;7.00;99.90;;;;;;5008584;28;20503;-78
2024/01/04 18:06:14;;;;;;;240.63;230.67;;;7.00;99.90;;;;;;5009389;28;20456;-78
2024/01/04 18:08:42;;;;;;;245.43;235.37;;;7.00;99.90;;;;;;5007945;28;20538;-78
2024/01/04 18:11:09;;;;;;;237.97;228.37;;;7.00;99.90;;;;;;5010487;28;20456;-78
2024/01/04 18:13:36;;;;;;;227.60;218.30;;;7.00;99.90;;;;;;5010436;28;20507;-78
2024/01/04 18:16:05;;;;;;;221.57;212.77;;;7.00;99.90;;;;;;5010310;28;20817;-78
2024/01/04 18:18:32;;;;;;;218.00;209.50;;;7.10;99.90;;;;;;5007974;28;20497;-78
2024/01/04 18:20:59;;;;;;;206.83;198.90;;;7.10;99.90;;;;;;5007942;28;20456;-78
2024/01/04 18:23:27;;;;;;;192.30;185.00;;;7.10;99.90;;;;;;5008087;28;20449;-78
2024/01/04 18:25:55;;;;;;;186.10;179.10;;;7.10;99.90;;;;;;5008152;28;20954;-78
2024/01/04 18:28:22;;;;;;;187.47;180.20;;;7.10;99.90;;;;;;5007894;28;20840;-78
2024/01/04 18:30:48;;;;;;;200.03;192.30;;;7.00;99.90;;;;;;5010152;28;20829;-78
2024/01/04 18:33:16;;;;;;;215.23;206.57;;;6.90;99.90;;;;;;5010307;28;20833;-78
2024/01/04 18:35:45;;;;;;;218.83;209.97;;;6.80;99.90;;;;;;5009556;28;20505;-78
2024/01/04 18:38:12;;;;;;;232.57;222.87;;;6.80;99.90;;;;;;5007567;28;20520;-78
2024/01/04 18:40:40;;;;;;;250.70;240.13;;;6.70;99.90;;;;;;4995066;28;20449;-78
2024/01/04 18:43:07;;;;;;;260.43;249.27;;;6.60;99.90;;;;;;4994852;28;20814;-78
2024/01/04 18:45:34;;;;;;;273.13;261.27;;;6.60;99.90;;;;;;4994641;28;20458;-78
2024/01/04 18:48:01;;;;;;;276.97;264.87;;;6.60;99.90;;;;;;4993959;28;20478;-78
2024/01/04 18:50:28;;;;;;;271.97;260.07;;;6.60;99.90;;;;;;4994533;28;20456;-78
2024/01/04 18:52:54;;;;;;;281.23;268.73;;;6.50;99.90;;;;;;4996381;28;20473;-78
2024/01/04 18:55:26;;;;;;;288.23;275.57;;;6.50;99.90;;;;;;4996557;28;20454;-78
2024/01/04 18:57:54;;;;;;;304.33;290.83;;;6.60;99.90;;;;;;4994769;28;20480;-78
2024/01/04 19:00:21;;;;;;;318.87;304.33;;;6.50;99.90;;;;;;4994457;28;20450;-78
2024/01/04 19:02:48;;;;;;;326.57;311.53;;;6.50;99.90;;;;;;4994662;28;20621;-77
